Pays
Station

 

Conditions  météo  pour  Sofia Observ.  -  Bulgarie    Bulgarie

  
1 °C
    
 
 

METAR pour Sofia Observ. :

LBSF 212130Z 12005KT 7000 SCT008 OVC011 01/M00 Q1018 R99/19//95 NOSIG

 

Voici le bulletin pour Sofia Observ. - Bulgarie.
 
Le bulletin a été fait il y a 30 minutes, à 21:30 UTC .
Le vent soufflait à la vitesse de 2.6 mètres par seconde de Est/Sud-est (120°).
 
La température était de 1 °C
La température ressentie était de -2 °C.
 
La pression atmosphérique était de 1018 hPa.
Il y avait 3 à 4/8ème de nébulosité à une hauteur de 244 mètres. Le ciel était nuageux à partir d'une hauteur de 335 mètres
 
La visibilité globale était de 7.0 kilomètres.
 

 
 
 

Pays :   A   B   C   D   E   F   G   H   I   J   K   L   M   N   O   P   Q   R   S   T   U   V   W   Y   Z

 

Partenaires :  Info Météo avec Met'info
Météo Marine avec MeteoMarine.net
Infos Site  |  Infos Légales  |  Crédits  |  Confidentialité
Contactez-nous  |  Ajouter aux favoris
© 2013-2019 METAR - Tous droits réservés